createdAt,value
2019-01-04T00:00:27.195Z,15.75
2019-01-04T00:02:54.626Z,17.20
2019-01-04T00:05:22.092Z,15.37
2019-01-04T00:07:49.525Z,12.83
2019-01-04T00:10:16.996Z,15.47
2019-01-04T00:12:44.429Z,14.17
2019-01-04T00:15:11.898Z,12.70
2019-01-04T00:17:39.361Z,16.37
2019-01-04T00:20:06.822Z,13.40
2019-01-04T00:22:34.288Z,15.06
2019-01-04T00:25:01.719Z,14.23
2019-01-04T00:27:29.421Z,12.95
2019-01-04T00:29:56.856Z,13.50
2019-01-04T00:32:24.316Z,15.25
2019-01-04T00:34:51.757Z,15.20
2019-01-04T00:37:19.261Z,14.33
2019-01-04T00:39:46.780Z,15.03
2019-01-04T00:42:14.275Z,11.25
2019-01-04T00:44:41.719Z,16.20
2019-01-04T00:47:10.085Z,15.83
2019-01-04T00:49:37.616Z,13.85
2019-01-04T00:52:05.055Z,15.50
2019-01-04T00:54:32.506Z,13.40
2019-01-04T00:57:02.898Z,13.33
2019-01-04T00:59:34.888Z,11.82
2019-01-04T01:02:03.912Z,18.80
2019-01-04T01:04:53.929Z,16.02
2019-01-04T01:07:22.243Z,15.95
2019-01-04T01:10:01.599Z,15.87
2019-01-04T01:12:30.437Z,18.60
2019-01-04T01:15:03.899Z,17.30
2019-01-04T01:17:38.031Z,19.37
2019-01-04T01:20:08.334Z,22.00
2019-01-04T01:22:58.329Z,23.37
2019-01-04T01:25:26.561Z,22.37
2019-01-04T01:28:14.787Z,22.93
2019-01-04T01:30:54.652Z,18.33
2019-01-04T01:33:29.270Z,23.10
2019-01-04T01:36:14.232Z,25.60
2019-01-04T01:38:59.467Z,27.10
2019-01-04T01:41:50.281Z,28.20
2019-01-04T01:44:29.517Z,30.57
2019-01-04T01:46:59.688Z,30.13
2019-01-04T01:49:49.785Z,34.30
2019-01-04T01:52:21.918Z,27.27
2019-01-04T01:54:49.378Z,29.53
2019-01-04T01:57:16.916Z,26.97
2019-01-04T01:59:44.367Z,32.67
2019-01-04T02:02:11.807Z,31.50
2019-01-04T02:04:39.265Z,23.08
2019-01-04T02:07:06.714Z,25.48
2019-01-04T02:09:34.168Z,33.13
2019-01-04T02:12:01.648Z,21.83
2019-01-04T02:14:29.755Z,28.12
2019-01-04T02:16:57.226Z,29.93
2019-01-04T02:19:24.673Z,35.38
2019-01-04T02:21:52.181Z,47.30
2019-01-04T02:24:20.629Z,50.40
2019-01-04T02:26:48.156Z,32.27
2019-01-04T02:29:15.617Z,49.67
2019-01-04T02:31:43.073Z,46.60
2019-01-04T02:34:10.523Z,39.20
2019-01-04T02:36:37.963Z,33.45
2019-01-04T02:39:05.403Z,41.77
2019-01-04T02:41:32.881Z,41.60
2019-01-04T02:44:00.300Z,37.13
2019-01-04T02:46:27.759Z,37.50
2019-01-04T02:48:55.204Z,41.50
2019-01-04T02:51:22.688Z,36.13
2019-01-04T02:53:50.112Z,40.20
2019-01-04T02:56:17.559Z,40.05
2019-01-04T02:58:45.027Z,40.73
2019-01-04T03:01:12.891Z,44.58
2019-01-04T03:03:40.363Z,50.10
2019-01-04T03:06:07.795Z,43.67
2019-01-04T03:08:35.290Z,49.00
2019-01-04T03:11:02.741Z,47.10
2019-01-04T03:13:30.190Z,50.27
2019-01-04T03:15:57.641Z,48.30
2019-01-04T03:18:25.120Z,54.13
2019-01-04T03:20:52.574Z,55.70
2019-01-04T03:23:20.046Z,51.83
2019-01-04T03:25:47.504Z,55.50
2019-01-04T03:28:14.994Z,51.67
2019-01-04T03:30:42.437Z,55.03
2019-01-04T03:33:09.901Z,58.37
2019-01-04T03:35:37.364Z,53.05
2019-01-04T03:38:04.823Z,51.50
2019-01-04T03:40:32.295Z,51.83
2019-01-04T03:42:59.943Z,47.25
2019-01-04T03:45:27.424Z,56.13
2019-01-04T03:47:54.865Z,56.30
2019-01-04T03:50:22.311Z,50.83
2019-01-04T03:52:49.785Z,51.15
2019-01-04T03:55:17.250Z,49.60
2019-01-04T03:57:44.725Z,46.33
2019-01-04T04:00:12.183Z,44.83
2019-01-04T04:02:39.624Z,42.33
2019-01-04T04:05:07.151Z,48.20
2019-01-04T04:07:34.602Z,49.13
2019-01-04T04:10:02.062Z,50.93
2019-01-04T04:12:30.032Z,43.15
2019-01-04T04:14:57.479Z,41.03
2019-01-04T04:17:24.931Z,49.95
2019-01-04T04:19:52.413Z,40.40
2019-01-04T04:22:19.888Z,45.07
2019-01-04T04:24:47.325Z,42.10
2019-01-04T04:27:14.781Z,38.47
2019-01-04T04:29:42.229Z,40.00
2019-01-04T04:32:09.708Z,45.43
2019-01-04T04:34:38.588Z,35.53
2019-01-04T04:37:06.133Z,29.70
2019-01-04T04:39:33.568Z,30.27
2019-01-04T04:42:01.017Z,37.07
2019-01-04T04:44:28.483Z,28.03
2019-01-04T04:46:55.957Z,30.17
2019-01-04T04:49:23.386Z,30.65
2019-01-04T04:51:50.807Z,23.60
2019-01-04T04:54:18.266Z,29.63
2019-01-04T04:56:45.727Z,28.07
2019-01-04T04:59:13.174Z,26.87
2019-01-04T05:01:40.621Z,25.87
2019-01-04T05:04:08.092Z,29.00
2019-01-04T05:06:35.519Z,28.77
2019-01-04T05:09:02.948Z,28.50
2019-01-04T05:11:30.422Z,29.45
2019-01-04T05:13:57.875Z,30.43
2019-01-04T05:16:25.330Z,29.80
2019-01-04T05:18:52.774Z,27.13
2019-01-04T05:21:20.233Z,30.55
2019-01-04T05:23:47.702Z,28.73
2019-01-04T05:26:15.182Z,38.30
2019-01-04T05:28:42.627Z,34.77
2019-01-04T05:31:10.090Z,36.03
2019-01-04T05:33:37.545Z,29.40
2019-01-04T05:36:05.005Z,32.90
2019-01-04T05:38:32.465Z,36.63
2019-01-04T05:41:00.308Z,31.45
2019-01-04T05:43:27.758Z,32.50
2019-01-04T05:45:55.218Z,33.90
2019-01-04T05:48:22.664Z,31.37
2019-01-04T05:50:50.141Z,33.60
2019-01-04T05:53:17.577Z,31.30
2019-01-04T05:55:45.007Z,29.65
2019-01-04T05:58:12.483Z,28.43
2019-01-04T06:00:39.946Z,31.03
2019-01-04T06:03:07.424Z,31.03
2019-01-04T06:05:35.930Z,32.75
2019-01-04T06:08:03.399Z,32.57
2019-01-04T06:10:30.900Z,32.63
2019-01-04T06:12:58.353Z,33.83
2019-01-04T06:15:25.819Z,37.85
2019-01-04T06:17:53.365Z,34.93
2019-01-04T06:20:20.905Z,41.07
2019-01-04T06:22:48.379Z,33.97
2019-01-04T06:25:15.856Z,36.00
2019-01-04T06:27:44.175Z,38.80
2019-01-04T06:30:10.832Z,36.07
2019-01-04T06:32:38.284Z,33.27
2019-01-04T06:35:05.727Z,33.40
2019-01-04T06:37:33.189Z,30.00
2019-01-04T06:40:00.634Z,37.77
2019-01-04T06:42:28.093Z,35.87
2019-01-04T06:44:56.549Z,29.87
2019-01-04T06:47:24.094Z,39.03
2019-01-04T06:49:51.549Z,34.37
2019-01-04T06:52:19.047Z,29.17
2019-01-04T06:54:58.184Z,30.30
2019-01-04T06:57:26.243Z,28.85
2019-01-04T06:59:53.693Z,29.67
2019-01-04T07:02:21.143Z,32.43
2019-01-04T07:04:48.584Z,26.77
2019-01-04T07:07:16.046Z,28.83
2019-01-04T07:09:43.478Z,24.37
2019-01-04T07:12:10.935Z,24.80
2019-01-04T07:14:38.407Z,27.40
2019-01-04T07:17:05.841Z,25.50
2019-01-04T07:19:33.302Z,25.73
2019-01-04T07:22:00.756Z,25.33
2019-01-04T07:24:28.233Z,25.47
2019-01-04T07:26:55.717Z,27.97
2019-01-04T07:29:23.164Z,22.33
2019-01-04T07:31:50.619Z,21.03
2019-01-04T07:34:18.245Z,21.83
2019-01-04T07:36:45.550Z,22.27
2019-01-04T07:39:13.020Z,20.33
2019-01-04T07:41:40.478Z,23.43
2019-01-04T07:44:07.923Z,20.20
2019-01-04T07:46:35.397Z,22.45
2019-01-04T07:49:02.833Z,20.70
2019-01-04T07:51:30.540Z,20.95
2019-01-04T07:53:58.003Z,21.10
2019-01-04T07:56:25.493Z,20.27
2019-01-04T07:58:53.768Z,19.83
2019-01-04T08:01:21.338Z,20.03
2019-01-04T08:03:48.819Z,21.23
2019-01-04T08:06:16.401Z,24.63
2019-01-04T08:08:43.918Z,23.30
2019-01-04T08:11:11.401Z,19.83
2019-01-04T08:13:38.868Z,21.30
2019-01-04T08:16:06.359Z,24.37
2019-01-04T08:18:33.840Z,21.83
2019-01-04T08:21:01.301Z,21.00
2019-01-04T08:23:28.758Z,19.85
2019-01-04T08:25:56.251Z,21.20
2019-01-04T08:28:23.739Z,25.13
2019-01-04T08:30:51.307Z,21.23
2019-01-04T08:33:18.752Z,21.62
2019-01-04T08:35:46.197Z,21.83
2019-01-04T08:38:13.694Z,23.20
2019-01-04T08:40:41.131Z,22.43
2019-01-04T08:43:08.585Z,25.65
2019-01-04T08:45:36.058Z,26.80
2019-01-04T08:48:03.496Z,26.67
2019-01-04T08:50:30.943Z,25.27
2019-01-04T08:52:58.362Z,27.00
2019-01-04T08:55:25.836Z,28.60
2019-01-04T08:57:53.278Z,25.07
2019-01-04T09:00:20.748Z,29.60
2019-01-04T09:02:48.197Z,30.43
2019-01-04T09:05:16.159Z,31.08
2019-01-04T09:07:44.470Z,27.53
2019-01-04T09:10:11.920Z,31.83
2019-01-04T09:12:39.364Z,27.03
2019-01-04T09:15:06.797Z,28.03
2019-01-04T09:17:34.260Z,29.43
2019-01-04T09:20:01.698Z,30.60
2019-01-04T09:22:29.147Z,25.23
2019-01-04T09:24:56.586Z,26.30
2019-01-04T09:27:24.046Z,24.20
2019-01-04T09:29:51.499Z,26.90
2019-01-04T09:32:18.959Z,25.90
2019-01-04T09:34:46.392Z,25.03
2019-01-04T09:37:13.847Z,27.10
2019-01-04T09:39:41.305Z,25.63
2019-01-04T09:42:11.267Z,21.20
2019-01-04T09:44:40.034Z,25.15
2019-01-04T09:47:07.664Z,20.50
2019-01-04T09:49:35.142Z,19.52
2019-01-04T09:52:03.232Z,19.77
2019-01-04T09:54:31.444Z,19.65
2019-01-04T09:57:00.028Z,21.97
2019-01-04T09:59:28.110Z,21.67
2019-01-04T10:01:56.444Z,21.13
2019-01-04T10:04:24.668Z,20.40
2019-01-04T10:06:52.835Z,19.60
2019-01-04T10:09:20.478Z,19.47
2019-01-04T10:11:47.991Z,19.87
2019-01-04T10:14:15.454Z,19.17
2019-01-04T10:16:42.922Z,19.10
2019-01-04T10:19:10.351Z,17.90
2019-01-04T10:21:37.807Z,20.80
2019-01-04T10:24:05.278Z,20.57
2019-01-04T10:26:32.731Z,17.07
2019-01-04T10:29:01.061Z,18.77
2019-01-04T10:31:28.510Z,17.00
2019-01-04T10:33:56.002Z,15.43
2019-01-04T10:36:23.440Z,15.40
2019-01-04T10:38:50.895Z,16.17
2019-01-04T10:41:18.386Z,15.05
2019-01-04T10:43:45.857Z,18.37
2019-01-04T10:46:16.473Z,17.77
2019-01-04T10:48:43.936Z,19.12
2019-01-04T10:51:11.371Z,15.93
2019-01-04T10:53:38.846Z,16.15
2019-01-04T10:56:06.286Z,17.13
2019-01-04T10:58:34.874Z,14.93
2019-01-04T11:01:02.387Z,15.37
2019-01-04T11:03:29.816Z,14.77
2019-01-04T11:05:57.298Z,14.20
2019-01-04T11:08:24.781Z,14.37
2019-01-04T11:10:52.979Z,14.63
2019-01-04T11:13:20.546Z,14.13
2019-01-04T11:15:47.984Z,15.00
2019-01-04T11:18:15.432Z,13.57
2019-01-04T11:20:42.873Z,13.23
2019-01-04T11:23:31.829Z,12.93
2019-01-04T11:26:03.743Z,12.77
2019-01-04T11:28:34.707Z,12.40
2019-01-04T11:31:06.843Z,12.53
2019-01-04T11:33:34.268Z,13.03
2019-01-04T11:36:32.079Z,13.07
2019-01-04T11:39:01.967Z,10.23
2019-01-04T11:41:36.903Z,12.10
2019-01-04T11:44:17.707Z,10.60
2019-01-04T11:46:46.595Z,9.48
2019-01-04T11:49:40.984Z,10.40
2019-01-04T11:52:10.974Z,10.77
2019-01-04T11:54:38.735Z,10.48
2019-01-04T11:57:06.431Z,11.00
2019-01-04T11:59:34.040Z,10.55
2019-01-04T12:02:01.515Z,10.27
2019-01-04T12:04:28.957Z,9.33
2019-01-04T12:06:56.456Z,8.77
2019-01-04T12:09:23.874Z,9.77
2019-01-04T12:11:52.408Z,8.57
2019-01-04T12:14:19.766Z,9.23
2019-01-04T12:16:47.213Z,8.80
2019-01-04T12:19:14.712Z,9.93
2019-01-04T12:21:42.133Z,9.57
2019-01-04T12:24:10.521Z,5.57
2019-01-04T12:26:38.031Z,6.90
2019-01-04T12:29:06.377Z,7.80
2019-01-04T12:31:32.979Z,7.00
2019-01-04T12:34:01.416Z,8.25
2019-01-04T12:36:29.754Z,9.23
2019-01-04T12:38:57.202Z,9.30
2019-01-04T12:41:24.672Z,9.07
2019-01-04T12:43:52.107Z,8.47
2019-01-04T12:46:19.563Z,10.23
2019-01-04T12:48:47.050Z,10.18
2019-01-04T12:51:14.506Z,10.30
2019-01-04T12:53:41.977Z,13.20
2019-01-04T12:56:09.480Z,11.88
2019-01-04T12:58:36.950Z,13.47
2019-01-04T13:01:04.579Z,9.70
2019-01-04T13:03:32.030Z,10.80
2019-01-04T13:05:59.503Z,14.70
2019-01-04T13:08:26.974Z,16.57
2019-01-04T13:10:55.227Z,14.00
2019-01-04T13:13:22.694Z,17.87
2019-01-04T13:15:50.149Z,18.80
2019-01-04T13:18:17.597Z,15.60
2019-01-04T13:20:45.461Z,12.90
2019-01-04T13:23:13.002Z,16.73
2019-01-04T13:25:40.476Z,18.27
2019-01-04T13:28:07.958Z,12.93
2019-01-04T13:30:35.383Z,14.83
2019-01-04T13:33:02.847Z,16.27
2019-01-04T13:35:30.328Z,14.82
2019-01-04T13:37:58.064Z,16.43
2019-01-04T13:40:25.564Z,15.37
2019-01-04T13:42:53.018Z,17.53
2019-01-04T13:45:21.279Z,16.15
2019-01-04T13:47:48.762Z,16.83
2019-01-04T13:50:16.201Z,15.03
2019-01-04T13:52:43.690Z,20.80
2019-01-04T13:55:11.315Z,18.75
2019-01-04T13:57:38.804Z,21.20
2019-01-04T14:00:07.167Z,19.30
2019-01-04T14:02:35.003Z,18.57
2019-01-04T14:05:02.777Z,21.73
2019-01-04T14:07:30.244Z,25.43
2019-01-04T14:09:57.872Z,27.27
2019-01-04T14:12:25.305Z,27.20
2019-01-04T14:14:52.911Z,22.40
2019-01-04T14:17:20.362Z,24.77
2019-01-04T14:19:47.840Z,23.67
2019-01-04T14:22:15.296Z,25.43
2019-01-04T14:24:42.747Z,26.30
2019-01-04T14:27:10.227Z,24.30
2019-01-04T14:29:37.728Z,23.27
2019-01-04T14:32:05.602Z,25.43
2019-01-04T14:34:33.169Z,25.20
2019-01-04T14:37:00.633Z,28.27
2019-01-04T14:39:28.113Z,26.57
2019-01-04T14:41:55.568Z,25.60
2019-01-04T14:44:23.018Z,27.83
2019-01-04T14:46:50.513Z,21.60
2019-01-04T14:49:17.955Z,30.57
2019-01-04T14:51:45.423Z,27.23
2019-01-04T14:54:12.850Z,28.10
2019-01-04T14:56:40.295Z,29.60
2019-01-04T14:59:07.744Z,27.47
2019-01-04T15:01:35.203Z,31.37
2019-01-04T15:04:03.049Z,26.52
2019-01-04T15:06:30.531Z,29.07
2019-01-04T15:08:58.005Z,29.87
2019-01-04T15:11:25.462Z,26.85
2019-01-04T15:13:52.905Z,25.67
2019-01-04T15:16:20.420Z,26.10
2019-01-04T15:18:48.867Z,29.45
2019-01-04T15:21:16.331Z,27.17
2019-01-04T15:23:43.794Z,29.75
2019-01-04T15:26:11.284Z,26.67
2019-01-04T15:28:38.768Z,28.65
2019-01-04T15:31:06.209Z,28.45
2019-01-04T15:33:33.663Z,31.23
2019-01-04T15:36:01.111Z,31.07
2019-01-04T15:38:28.614Z,29.47
2019-01-04T15:40:56.135Z,22.87
2019-01-04T15:43:23.598Z,27.45
2019-01-04T15:45:51.136Z,31.42
2019-01-04T15:48:18.717Z,28.97
2019-01-04T15:50:46.207Z,31.48
2019-01-04T15:53:13.804Z,30.87
2019-01-04T15:55:41.404Z,25.92
2019-01-04T15:58:08.843Z,28.60
2019-01-04T16:00:36.361Z,28.80
2019-01-04T16:03:03.817Z,26.50
2019-01-04T16:05:31.244Z,19.07
2019-01-04T16:07:58.983Z,31.27
2019-01-04T16:10:26.624Z,27.00
2019-01-04T16:12:54.125Z,31.37
2019-01-04T16:15:21.587Z,26.80
2019-01-04T16:17:49.055Z,32.47
2019-01-04T16:20:16.543Z,30.33
2019-01-04T16:22:44.247Z,30.20
2019-01-04T16:25:11.916Z,32.78
2019-01-04T16:27:39.552Z,33.55
2019-01-04T16:30:07.886Z,33.03
2019-01-04T16:32:35.421Z,32.03
2019-01-04T16:35:03.831Z,29.60
2019-01-04T16:37:31.516Z,26.80
2019-01-04T16:39:59.074Z,36.37
2019-01-04T16:42:26.660Z,34.87
2019-01-04T16:44:54.159Z,32.27
2019-01-04T16:47:22.135Z,35.43
2019-01-04T16:49:50.489Z,38.57
2019-01-04T16:52:18.151Z,26.50
2019-01-04T16:54:45.646Z,40.07
2019-01-04T16:57:13.275Z,33.63
2019-01-04T16:59:40.952Z,33.07
2019-01-04T17:02:08.414Z,35.05
2019-01-04T17:04:36.025Z,33.17
2019-01-04T17:07:04.075Z,38.33
2019-01-04T17:09:31.626Z,43.07
2019-01-04T17:11:59.146Z,39.80
2019-01-04T17:14:27.235Z,45.13
2019-01-04T17:16:54.763Z,41.90
2019-01-04T17:19:22.276Z,46.35
2019-01-04T17:21:49.715Z,41.60
2019-01-04T17:24:17.303Z,42.07
2019-01-04T17:26:44.929Z,41.80
2019-01-04T17:29:13.929Z,49.93
2019-01-04T17:31:41.465Z,45.93
2019-01-04T17:34:08.943Z,53.17
2019-01-04T17:36:36.455Z,47.33
2019-01-04T17:39:04.525Z,58.20
2019-01-04T17:41:31.961Z,47.93
2019-01-04T17:43:59.433Z,54.47
2019-01-04T17:46:26.910Z,54.93
2019-01-04T17:48:54.608Z,55.93
2019-01-04T17:51:22.237Z,55.53
2019-01-04T17:53:49.689Z,60.00
2019-01-04T17:56:17.419Z,52.50
2019-01-04T17:58:45.308Z,55.67
2019-01-04T18:01:13.083Z,58.50
2019-01-04T18:03:40.534Z,61.03
2019-01-04T18:06:08.017Z,60.70
2019-01-04T18:08:35.447Z,63.35
2019-01-04T18:11:02.905Z,58.97
2019-01-04T18:13:30.758Z,76.47
2019-01-04T18:15:59.686Z,74.17
2019-01-04T18:18:27.527Z,73.47
2019-01-04T18:20:55.158Z,84.10
2019-01-04T18:23:22.712Z,78.90
2019-01-04T18:25:50.186Z,83.80
2019-01-04T18:28:17.694Z,88.25
2019-01-04T18:30:45.202Z,86.63
2019-01-04T18:33:13.796Z,90.07
2019-01-04T18:35:41.320Z,79.40
2019-01-04T18:38:08.807Z,89.60
2019-01-04T18:40:36.505Z,80.43
2019-01-04T18:43:05.243Z,92.95
2019-01-04T18:45:32.863Z,89.37
2019-01-04T18:48:00.351Z,83.77
2019-01-04T18:50:27.828Z,87.13
2019-01-04T18:52:55.283Z,91.03
2019-01-04T18:55:22.754Z,90.97
2019-01-04T18:57:50.249Z,90.23
2019-01-04T19:00:17.747Z,90.90
2019-01-04T19:02:45.202Z,88.77
2019-01-04T19:05:13.874Z,84.07
2019-01-04T19:07:41.937Z,91.33
2019-01-04T19:10:10.295Z,83.97
2019-01-04T19:12:37.841Z,80.60
2019-01-04T19:15:05.342Z,67.77
2019-01-04T19:17:32.830Z,76.07
2019-01-04T19:20:00.409Z,73.93
2019-01-04T19:22:28.413Z,80.87
2019-01-04T19:24:55.935Z,75.57
2019-01-04T19:27:23.389Z,72.60
2019-01-04T19:29:50.866Z,93.07
2019-01-04T19:32:18.345Z,92.37
2019-01-04T19:34:45.814Z,101.60
2019-01-04T19:37:13.323Z,102.03
2019-01-04T19:39:40.822Z,126.90
2019-01-04T19:42:08.288Z,93.37
2019-01-04T19:44:35.727Z,138.53
2019-01-04T19:47:03.221Z,162.37
2019-01-04T19:49:31.398Z,174.05
2019-01-04T19:51:58.916Z,190.77
2019-01-04T19:54:26.383Z,212.40
2019-01-04T19:56:53.853Z,142.57
2019-01-04T19:59:21.331Z,188.13
2019-01-04T20:01:48.791Z,157.03
2019-01-04T20:04:16.250Z,131.50
2019-01-04T20:13:54.288Z,128.68
2019-01-04T20:16:41.875Z,104.22
2019-01-04T20:19:12.195Z,98.67
2019-01-04T20:21:54.445Z,87.80
2019-01-04T20:24:24.487Z,89.30
2019-01-04T20:26:51.925Z,75.17
2019-01-04T20:29:20.181Z,78.37
2019-01-04T20:31:53.323Z,81.03
2019-01-04T20:34:36.538Z,71.50
2019-01-04T20:37:20.657Z,68.57
2019-01-04T20:40:06.918Z,73.07
2019-01-04T20:42:37.915Z,78.00
2019-01-04T20:45:06.986Z,73.35
2019-01-04T20:47:40.112Z,76.80
2019-01-04T20:50:12.642Z,80.67
2019-01-04T20:52:56.769Z,68.87
2019-01-04T20:55:40.188Z,62.43
2019-01-04T20:58:10.111Z,74.63
2019-01-04T21:00:43.222Z,71.40
2019-01-04T21:03:16.204Z,69.90
2019-01-04T21:05:58.748Z,67.40
2019-01-04T21:08:31.767Z,57.83
2019-01-04T21:11:04.997Z,63.95
2019-01-04T21:13:49.201Z,66.47
2019-01-04T21:16:36.427Z,62.50
2019-01-04T21:19:10.322Z,64.90
2019-01-04T21:21:43.391Z,58.47
2019-01-04T21:24:17.361Z,64.00
2019-01-04T21:26:59.841Z,53.92
2019-01-04T21:29:31.600Z,58.67
2019-01-04T21:32:14.043Z,63.13
2019-01-04T21:34:44.319Z,57.20
2019-01-04T21:37:29.481Z,55.58
2019-01-04T21:40:02.977Z,56.37
2019-01-04T21:42:45.372Z,60.67
2019-01-04T21:45:18.674Z,54.83
2019-01-04T21:47:50.678Z,52.00
2019-01-04T21:50:23.662Z,53.97
2019-01-04T21:52:55.512Z,53.40
2019-01-04T21:55:25.875Z,52.83
2019-01-04T21:57:59.026Z,54.60
2019-01-04T22:00:36.377Z,53.30
2019-01-04T22:03:22.763Z,52.27
2019-01-04T22:06:08.961Z,51.33
2019-01-04T22:08:36.785Z,54.82
2019-01-04T22:11:09.763Z,58.10
2019-01-04T22:13:56.635Z,57.73
2019-01-04T22:16:25.969Z,52.30
2019-01-04T22:18:58.925Z,66.77
2019-01-04T22:21:31.349Z,57.73
2019-01-04T22:24:04.458Z,57.80
2019-01-04T22:26:34.851Z,62.93
2019-01-04T22:29:17.207Z,64.60
2019-01-04T22:31:46.338Z,61.67
2019-01-04T22:34:24.631Z,68.73
2019-01-04T22:37:07.271Z,73.50
2019-01-04T22:39:37.217Z,77.70
2019-01-04T22:42:23.458Z,64.70
2019-01-04T22:45:09.804Z,74.37
2019-01-04T22:47:38.355Z,66.03
2019-01-04T22:50:25.528Z,78.30
2019-01-04T22:52:58.905Z,68.17
2019-01-04T22:55:27.367Z,74.47
2019-01-04T22:58:00.494Z,76.03
2019-01-04T23:00:29.633Z,72.40
2019-01-04T23:03:14.824Z,96.30
2019-01-04T23:05:42.259Z,84.10
2019-01-04T23:08:10.100Z,79.33
2019-01-04T23:10:44.035Z,85.83
2019-01-04T23:13:13.333Z,96.60
2019-01-04T23:15:58.607Z,86.17
2019-01-04T23:18:27.903Z,95.70
2019-01-04T23:21:00.890Z,96.03
2019-01-04T23:23:30.730Z,109.07
2019-01-04T23:26:03.835Z,123.27
2019-01-04T23:28:34.673Z,169.40
2019-01-04T23:31:07.794Z,118.70
2019-01-04T23:33:42.011Z,186.23
2019-01-04T23:36:27.265Z,131.13
2019-01-04T23:39:09.604Z,139.27
2019-01-04T23:41:43.336Z,203.90
2019-01-04T23:44:22.416Z,267.97
2019-01-04T23:46:51.759Z,149.02
2019-01-04T23:49:22.757Z,282.57
2019-01-04T23:51:55.774Z,119.73
2019-01-04T23:54:33.878Z,110.68
2019-01-04T23:57:16.240Z,110.75
2019-01-04T23:59:49.179Z,118.87
